createdAt,value
2023-04-01T00:01:30.247Z,1.20
2023-04-01T00:03:58.142Z,1.10
2023-04-01T00:06:25.573Z,1.40
2023-04-01T00:08:53.510Z,1.10
2023-04-01T00:11:22.189Z,1.20
2023-04-01T00:13:49.178Z,1.07
2023-04-01T00:18:48.225Z,1.60
2023-04-01T00:21:15.622Z,1.30
2023-04-01T00:23:42.716Z,1.20
2023-04-01T00:26:09.774Z,1.33
2023-04-01T00:28:37.248Z,1.50
2023-04-01T00:31:09.077Z,1.30
2023-04-01T00:33:36.725Z,1.30
2023-04-01T00:36:26.184Z,1.40
2023-04-01T00:38:53.611Z,1.27
2023-04-01T00:41:22.451Z,1.40
2023-04-01T00:43:54.267Z,1.53
2023-04-01T00:46:21.267Z,1.30
2023-04-01T00:48:56.239Z,1.33
2023-04-01T00:51:26.783Z,2.10
2023-04-01T00:53:56.680Z,1.20
2023-04-01T00:56:36.575Z,1.20
2023-04-01T00:59:15.474Z,1.40
2023-04-01T01:01:42.501Z,1.60
2023-04-01T01:04:26.613Z,1.63
2023-04-01T01:07:23.699Z,1.20
2023-04-01T01:09:59.448Z,1.07
2023-04-01T01:12:46.308Z,1.30
2023-04-01T01:15:19.049Z,1.27
2023-04-01T01:17:57.294Z,1.87
2023-04-01T01:20:55.231Z,1.70
2023-04-01T01:23:50.065Z,1.23
2023-04-01T01:26:43.711Z,1.10
2023-04-01T01:29:45.694Z,1.20
2023-04-01T01:32:18.260Z,1.47
2023-04-01T01:34:55.006Z,1.10
2023-04-01T01:37:25.890Z,1.30
2023-04-01T01:40:07.038Z,1.50
2023-04-01T01:42:37.827Z,1.70
2023-04-01T01:45:06.957Z,1.60
2023-04-01T01:47:36.007Z,1.20
2023-04-01T01:50:04.373Z,1.60
2023-04-01T01:52:31.298Z,1.30
2023-04-01T01:54:59.211Z,1.30
2023-04-01T01:57:37.462Z,1.20
2023-04-01T02:00:13.882Z,1.13
2023-04-01T02:02:46.745Z,1.30
2023-04-01T02:05:19.500Z,1.40
2023-04-01T02:07:55.069Z,1.40
2023-04-01T02:10:26.114Z,1.30
2023-04-01T02:12:57.876Z,1.30
2023-04-01T02:15:27.558Z,1.10
2023-04-01T02:17:55.832Z,1.10
2023-04-01T02:20:24.639Z,0.97
2023-04-01T02:22:54.358Z,1.00
2023-04-01T02:25:30.184Z,1.13
2023-04-01T02:27:59.444Z,1.10
2023-04-01T02:30:30.052Z,1.30
2023-04-01T02:32:59.464Z,1.10
2023-04-01T02:35:26.980Z,1.00
2023-04-01T02:37:55.362Z,1.03
2023-04-01T02:40:22.368Z,1.10
2023-04-01T02:42:49.204Z,1.27
2023-04-01T02:45:16.195Z,1.00
2023-04-01T02:47:43.079Z,0.90
2023-04-01T02:50:11.036Z,1.17
2023-04-01T02:52:38.030Z,1.20
2023-04-01T02:55:06.075Z,1.20
2023-04-01T02:57:33.045Z,1.30
2023-04-01T03:00:00.041Z,1.03
2023-04-01T03:02:26.928Z,1.03
2023-04-01T03:04:53.736Z,0.97
2023-04-01T03:07:20.714Z,1.20
2023-04-01T03:09:47.836Z,0.97
2023-04-01T03:12:14.705Z,1.47
2023-04-01T03:14:41.489Z,0.97
2023-04-01T03:17:08.397Z,1.10
2023-04-01T03:19:35.543Z,1.00
2023-04-01T03:22:02.345Z,1.20
2023-04-01T03:24:29.165Z,1.00
2023-04-01T03:26:56.031Z,1.10
2023-04-01T03:29:23.103Z,0.90
2023-04-01T03:31:49.840Z,0.90
2023-04-01T03:34:16.648Z,1.20
2023-04-01T03:36:43.527Z,1.10
2023-04-01T03:39:10.452Z,0.90
2023-04-01T03:41:39.373Z,0.90
2023-04-01T03:44:06.421Z,1.10
2023-04-01T03:46:33.268Z,0.80
2023-04-01T03:49:00.003Z,1.23
2023-04-01T03:51:26.815Z,1.10
2023-04-01T03:53:53.842Z,0.90
2023-04-01T03:56:20.704Z,1.20
2023-04-01T03:58:47.476Z,0.97
2023-04-01T04:01:19.612Z,0.97
2023-04-01T04:03:46.880Z,1.00
2023-04-01T04:06:18.731Z,1.00
2023-04-01T04:08:45.841Z,1.10
2023-04-01T04:11:13.015Z,1.00
2023-04-01T04:13:39.921Z,0.90
2023-04-01T04:16:07.036Z,0.93
2023-04-01T04:18:34.260Z,0.90
2023-04-01T04:21:01.094Z,1.20
2023-04-01T04:23:29.329Z,0.93
2023-04-01T04:26:07.653Z,1.00
2023-04-01T04:28:34.890Z,1.10
2023-04-01T04:31:02.086Z,1.13
2023-04-01T04:33:29.273Z,1.00
2023-04-01T04:35:57.966Z,1.10
2023-04-01T04:38:25.432Z,1.00
2023-04-01T04:40:52.261Z,0.80
2023-04-01T04:43:21.923Z,1.03
2023-04-01T04:45:48.743Z,1.10
2023-04-01T04:48:21.309Z,1.07
2023-04-01T04:50:50.565Z,1.03
2023-04-01T04:53:19.354Z,1.13
2023-04-01T04:55:48.040Z,1.20
2023-04-01T04:58:15.583Z,1.00
2023-04-01T05:00:42.885Z,1.03
2023-04-01T05:03:10.367Z,1.10
2023-04-01T05:05:37.213Z,1.20
2023-04-01T05:08:04.389Z,1.00
2023-04-01T05:10:32.992Z,0.90
2023-04-01T05:12:59.773Z,1.00
2023-04-01T05:15:26.539Z,1.20
2023-04-01T05:17:53.369Z,1.03
2023-04-01T05:20:20.363Z,1.00
2023-04-01T05:22:47.194Z,1.00
2023-04-01T05:25:13.978Z,1.20
2023-04-01T05:27:40.829Z,1.17
2023-04-01T05:30:08.379Z,1.00
2023-04-01T05:32:35.265Z,1.30
2023-04-01T05:35:02.153Z,1.47
2023-04-01T05:37:28.886Z,1.20
2023-04-01T05:39:55.884Z,1.40
2023-04-01T05:42:22.649Z,1.03
2023-04-01T05:44:49.442Z,1.43
2023-04-01T05:47:16.257Z,1.20
2023-04-01T05:49:42.997Z,1.40
2023-04-01T05:52:10.064Z,1.30
2023-04-01T05:54:37.101Z,1.10
2023-04-01T05:57:06.101Z,1.30
2023-04-01T05:59:32.874Z,1.23
2023-04-01T06:02:00.106Z,1.27
2023-04-01T06:04:32.973Z,1.30
2023-04-01T06:06:59.725Z,1.10
2023-04-01T06:09:30.293Z,1.30
2023-04-01T06:12:03.168Z,1.10
2023-04-01T06:14:46.339Z,1.23
2023-04-01T06:17:35.428Z,1.17
2023-04-01T06:20:11.602Z,1.40
2023-04-01T06:23:13.605Z,1.30
2023-04-01T06:25:59.948Z,1.20
2023-04-01T06:28:57.245Z,1.20
2023-04-01T06:32:02.160Z,1.10
2023-04-01T06:34:43.416Z,1.27
2023-04-01T06:37:50.885Z,1.33
2023-04-01T06:40:30.603Z,1.10
2023-04-01T06:43:33.399Z,1.00
2023-04-01T06:46:22.273Z,1.20
2023-04-01T06:48:57.833Z,1.40
2023-04-01T06:51:27.737Z,1.10
2023-04-01T06:54:20.393Z,1.10
2023-04-01T06:56:51.905Z,1.00
2023-04-01T06:59:39.009Z,1.23
2023-04-01T07:02:11.913Z,1.20
2023-04-01T07:04:48.067Z,1.10
2023-04-01T07:07:24.965Z,1.10
2023-04-01T07:09:56.566Z,1.20
2023-04-01T07:12:32.805Z,1.20
2023-04-01T07:15:28.770Z,1.20
2023-04-01T07:18:25.707Z,1.30
2023-04-01T07:20:54.339Z,1.40
2023-04-01T07:23:28.164Z,1.20
2023-04-01T07:26:05.235Z,1.23
2023-04-01T07:28:35.448Z,1.33
2023-04-01T07:31:05.453Z,1.30
2023-04-01T07:33:53.704Z,1.20
2023-04-01T07:36:46.487Z,1.43
2023-04-01T07:39:34.924Z,1.20
2023-04-01T07:42:31.520Z,1.23
2023-04-01T07:45:26.808Z,1.10
2023-04-01T07:48:05.591Z,1.30
2023-04-01T07:50:41.771Z,1.10
2023-04-01T07:53:28.170Z,1.20
2023-04-01T07:56:01.930Z,1.23
2023-04-01T07:58:47.714Z,1.00
2023-04-01T08:01:25.871Z,1.23
2023-04-01T08:04:01.427Z,1.07
2023-04-01T08:06:43.280Z,1.03
2023-04-01T08:09:26.865Z,1.40
2023-04-01T08:12:14.149Z,1.33
2023-04-01T08:14:57.002Z,1.30
2023-04-01T08:17:56.264Z,1.10
2023-04-01T08:20:37.664Z,1.10
2023-04-01T08:23:09.418Z,1.43
2023-04-01T08:25:41.804Z,1.10
2023-04-01T08:28:08.560Z,0.90
2023-04-01T08:31:01.283Z,1.00
2023-04-01T08:33:32.926Z,1.10
2023-04-01T08:36:20.162Z,1.03
2023-04-01T08:39:11.822Z,1.20
2023-04-01T08:41:57.261Z,1.10
2023-04-01T08:45:01.395Z,1.37
2023-04-01T08:48:00.582Z,1.50
2023-04-01T08:51:14.720Z,1.10
2023-04-01T08:53:50.055Z,1.10
2023-04-01T08:56:29.486Z,0.97
2023-04-01T08:59:45.235Z,0.97
2023-04-01T09:02:42.909Z,1.27
2023-04-01T09:05:31.767Z,0.90
2023-04-01T09:08:35.495Z,1.30
2023-04-01T09:11:11.562Z,0.90
2023-04-01T09:14:08.231Z,1.13
2023-04-01T09:17:10.004Z,1.00
2023-04-01T09:20:14.968Z,1.10
2023-04-01T09:22:53.395Z,1.00
2023-04-01T09:25:45.003Z,1.00
2023-04-01T09:28:21.874Z,0.83
2023-04-01T09:31:00.703Z,1.10
2023-04-01T09:34:00.908Z,1.40
2023-04-01T09:36:27.646Z,1.00
2023-04-01T09:38:58.892Z,1.60
2023-04-01T09:41:34.015Z,1.13
2023-04-01T09:44:02.431Z,0.90
2023-04-01T09:46:45.064Z,1.17
2023-04-01T09:49:27.437Z,1.60
2023-04-01T09:52:06.548Z,1.73
2023-04-01T09:54:37.405Z,1.60
2023-04-01T09:57:33.660Z,1.80
2023-04-01T10:00:26.100Z,2.30
2023-04-01T10:03:08.189Z,1.00
2023-04-01T10:05:35.204Z,1.30
2023-04-01T10:08:25.418Z,0.90
2023-04-01T10:11:04.317Z,1.00
2023-04-01T10:14:05.473Z,1.00
2023-04-01T10:16:51.889Z,1.13
2023-04-01T10:19:35.429Z,1.03
2023-04-01T10:22:33.956Z,1.30
2023-04-01T10:25:19.880Z,1.30
2023-04-01T10:28:08.559Z,1.17
2023-04-01T10:31:23.514Z,1.20
2023-04-01T10:33:53.529Z,1.10
2023-04-01T10:36:35.422Z,1.20
2023-04-01T10:39:21.031Z,1.30
2023-04-01T10:42:02.713Z,1.17
2023-04-01T10:45:02.096Z,1.00
2023-04-01T10:48:06.465Z,1.00
2023-04-01T10:51:02.806Z,0.97
2023-04-01T10:53:40.622Z,1.03
2023-04-01T10:56:52.644Z,1.20
2023-04-01T10:59:48.402Z,1.23
2023-04-01T11:02:40.098Z,1.10
2023-04-01T11:05:27.519Z,1.27
2023-04-01T11:08:21.434Z,1.83
2023-04-01T11:11:38.660Z,1.10
2023-04-01T11:14:24.348Z,1.13
2023-04-01T11:17:00.142Z,1.23
2023-04-01T11:20:04.795Z,1.10
2023-04-01T11:22:41.995Z,1.20
2023-04-01T11:25:39.660Z,1.10
2023-04-01T11:28:36.942Z,1.30
2023-04-01T11:31:52.100Z,1.13
2023-04-01T11:34:37.739Z,1.10
2023-04-01T11:37:11.503Z,1.00
2023-04-01T11:39:38.255Z,1.10
2023-04-01T11:42:11.659Z,1.30
2023-04-01T11:44:47.344Z,1.10
2023-04-01T11:47:41.505Z,1.00
2023-04-01T11:50:17.059Z,1.17
2023-04-01T11:53:07.793Z,1.10
2023-04-01T11:55:58.951Z,1.27
2023-04-01T11:59:03.842Z,1.00
2023-04-01T12:02:09.248Z,1.20
2023-04-01T12:05:14.908Z,1.37
2023-04-01T12:08:02.597Z,1.10
2023-04-01T12:10:50.026Z,1.10
2023-04-01T12:13:36.015Z,1.10
2023-04-01T12:16:28.705Z,1.20
2023-04-01T12:19:22.650Z,1.00
2023-04-01T12:22:03.753Z,1.07
2023-04-01T12:24:53.943Z,1.30
2023-04-01T12:27:30.927Z,1.43
2023-04-01T12:30:03.770Z,0.97
2023-04-01T12:32:51.952Z,1.03
2023-04-01T12:35:30.536Z,1.10
2023-04-01T12:38:32.737Z,1.10
2023-04-01T12:41:02.318Z,1.00
2023-04-01T12:43:43.959Z,1.00
2023-04-01T12:46:35.272Z,1.20
2023-04-01T12:49:50.520Z,0.90
2023-04-01T12:52:37.358Z,1.30
2023-04-01T12:55:13.646Z,1.10
2023-04-01T12:57:59.035Z,1.20
2023-04-01T13:00:57.048Z,1.00
2023-04-01T13:03:40.033Z,1.20
2023-04-01T13:06:42.306Z,1.03
2023-04-01T13:09:25.986Z,1.10
2023-04-01T13:12:05.332Z,1.10
2023-04-01T13:14:59.504Z,0.90
2023-04-01T13:17:51.493Z,1.10
2023-04-01T13:20:49.005Z,1.37
2023-04-01T13:23:34.563Z,1.33
2023-04-01T13:26:15.321Z,1.23
2023-04-01T13:28:54.170Z,1.17
2023-04-01T13:31:33.006Z,1.50
2023-04-01T13:34:19.057Z,1.40
2023-04-01T13:37:07.339Z,1.30
2023-04-01T13:39:47.865Z,1.20
2023-04-01T13:42:32.558Z,1.17
2023-04-01T13:45:03.669Z,1.30
2023-04-01T13:48:26.758Z,0.90
2023-04-01T13:51:05.328Z,1.10
2023-04-01T13:53:32.343Z,1.10
2023-04-01T13:56:28.239Z,1.10
2023-04-01T13:59:08.990Z,1.20
2023-04-01T14:01:58.291Z,1.10
2023-04-01T14:04:50.577Z,1.20
2023-04-01T14:07:23.334Z,1.10
2023-04-01T14:10:40.714Z,1.20
2023-04-01T14:13:24.193Z,1.10
2023-04-01T14:16:15.538Z,1.00
2023-04-01T14:19:04.041Z,1.20
2023-04-01T14:21:39.297Z,1.20
2023-04-01T14:24:21.848Z,1.00
2023-04-01T14:27:03.516Z,1.20
2023-04-01T14:29:39.458Z,1.30
2023-04-01T14:32:24.858Z,1.33
2023-04-01T14:35:18.181Z,1.33
2023-04-01T14:38:03.797Z,1.30
2023-04-01T14:40:54.918Z,1.20
2023-04-01T14:43:56.115Z,1.37
2023-04-01T14:47:06.037Z,1.40
2023-04-01T14:49:42.632Z,0.97
2023-04-01T14:52:23.956Z,1.00
2023-04-01T14:54:52.812Z,1.10
2023-04-01T14:57:31.081Z,1.00
2023-04-01T15:00:19.578Z,1.40
2023-04-01T15:03:02.346Z,1.57
2023-04-01T15:05:46.689Z,1.20
2023-04-01T15:08:19.150Z,1.80
2023-04-01T15:11:07.719Z,2.07
2023-04-01T15:14:08.877Z,1.20
2023-04-01T15:17:00.775Z,0.97
2023-04-01T15:19:46.212Z,1.20
2023-04-01T15:22:28.225Z,1.13
2023-04-01T15:25:25.755Z,1.30
2023-04-01T15:28:15.965Z,1.40
2023-04-01T15:30:52.371Z,1.60
2023-04-01T15:33:33.480Z,1.30
2023-04-01T15:36:25.698Z,1.40
2023-04-01T15:39:14.269Z,1.03
2023-04-01T15:42:09.745Z,1.20
2023-04-01T15:45:04.158Z,1.10
2023-04-01T15:47:38.904Z,1.10
2023-04-01T15:50:27.159Z,1.20
2023-04-01T15:53:13.613Z,1.20
2023-04-01T15:56:13.341Z,1.10
2023-04-01T15:59:01.594Z,1.10
2023-04-01T16:01:35.714Z,1.00
2023-04-01T16:04:40.223Z,1.00
2023-04-01T16:07:44.663Z,1.00
2023-04-01T16:10:31.773Z,0.90
2023-04-01T16:13:33.813Z,1.00
2023-04-01T16:16:00.699Z,1.10
2023-04-01T16:18:36.332Z,1.50
2023-04-01T16:21:25.789Z,1.87
2023-04-01T16:24:16.179Z,1.27
2023-04-01T16:27:01.645Z,1.30
2023-04-01T16:29:32.295Z,1.37
2023-04-01T16:32:17.596Z,1.30
2023-04-01T16:35:05.341Z,2.13
2023-04-01T16:37:44.401Z,1.30
2023-04-01T16:40:35.695Z,1.40
2023-04-01T16:43:17.719Z,1.20
2023-04-01T16:45:54.363Z,1.50
2023-04-01T16:48:47.691Z,1.50
2023-04-01T16:51:20.225Z,1.27
2023-04-01T16:54:03.497Z,1.60
2023-04-01T16:56:48.993Z,1.43
2023-04-01T16:59:22.770Z,1.70
2023-04-01T17:02:23.575Z,1.50
2023-04-01T17:05:10.530Z,1.10
2023-04-01T17:07:43.232Z,1.50
2023-04-01T17:10:41.095Z,1.40
2023-04-01T17:13:28.005Z,1.10
2023-04-01T17:15:57.770Z,1.30
2023-04-01T17:18:51.346Z,1.20
2023-04-01T17:21:29.104Z,2.10
2023-04-01T17:24:07.737Z,1.47
2023-04-01T17:26:49.750Z,1.30
2023-04-01T17:29:48.126Z,1.40
2023-04-01T17:32:39.216Z,1.30
2023-04-01T17:35:22.423Z,1.40
2023-04-01T17:38:11.192Z,1.63
2023-04-01T17:41:09.280Z,1.77
2023-04-01T17:43:45.667Z,1.60
2023-04-01T17:46:46.744Z,1.40
2023-04-01T17:49:36.827Z,1.40
2023-04-01T17:52:28.184Z,2.13
2023-04-01T17:55:20.560Z,2.10
2023-04-01T17:57:55.884Z,2.17
2023-04-01T18:00:46.139Z,2.30
2023-04-01T18:03:57.486Z,2.37
2023-04-01T18:06:52.871Z,2.63
2023-04-01T18:09:57.528Z,2.30
2023-04-01T18:12:47.705Z,2.27
2023-04-01T18:15:39.437Z,2.00
2023-04-01T18:18:31.862Z,2.17
2023-04-01T18:21:10.755Z,1.80
2023-04-01T18:23:52.074Z,1.90
2023-04-01T18:26:35.926Z,3.10
2023-04-01T18:29:32.015Z,1.80
2023-04-01T18:32:13.976Z,2.30
2023-04-01T18:35:17.152Z,2.07
2023-04-01T18:37:55.628Z,2.00
2023-04-01T18:41:11.355Z,2.50
2023-04-01T18:43:59.565Z,2.20
2023-04-01T18:46:35.496Z,2.00
2023-04-01T18:49:37.243Z,1.97
2023-04-01T18:52:14.891Z,2.03
2023-04-01T18:54:47.570Z,1.73
2023-04-01T18:57:16.944Z,1.73
2023-04-01T18:59:58.073Z,2.00
2023-04-01T19:02:51.859Z,1.43
2023-04-01T19:05:24.366Z,1.90
2023-04-01T19:07:54.088Z,2.10
2023-04-01T19:10:27.578Z,1.90
2023-04-01T19:13:20.503Z,2.27
2023-04-01T19:16:01.481Z,2.07
2023-04-01T19:18:57.927Z,2.27
2023-04-01T19:21:37.022Z,2.63
2023-04-01T19:24:22.780Z,2.37
2023-04-01T19:27:12.480Z,1.70
2023-04-01T19:29:58.012Z,1.83
2023-04-01T19:32:42.946Z,2.00
2023-04-01T19:35:34.981Z,2.20
2023-04-01T19:38:15.884Z,2.67
2023-04-01T19:41:02.654Z,3.20
2023-04-01T19:43:35.209Z,2.80
2023-04-01T19:46:21.336Z,2.00
2023-04-01T19:49:07.209Z,1.90
2023-04-01T19:51:39.855Z,1.80
2023-04-01T19:54:18.536Z,2.70
2023-04-01T19:57:11.460Z,2.87
2023-04-01T19:59:58.050Z,2.10
2023-04-01T20:02:36.825Z,2.10
2023-04-01T20:05:23.938Z,3.30
2023-04-01T20:07:57.907Z,1.90
2023-04-01T20:10:36.508Z,2.50
2023-04-01T20:13:24.906Z,2.13
2023-04-01T20:16:05.407Z,2.10
2023-04-01T20:18:45.526Z,2.73
2023-04-01T20:21:15.411Z,2.50
2023-04-01T20:23:48.666Z,2.13
2023-04-01T20:26:22.156Z,2.20
2023-04-01T20:28:58.120Z,2.37
2023-04-01T20:31:45.991Z,1.80
2023-04-01T20:34:55.184Z,2.23
2023-04-01T20:37:37.535Z,2.00
2023-04-01T20:40:19.871Z,2.10
2023-04-01T20:43:17.580Z,1.43
2023-04-01T20:46:01.567Z,1.70
2023-04-01T20:48:50.901Z,1.60
2023-04-01T20:51:34.211Z,2.43
2023-04-01T20:54:19.168Z,2.03
2023-04-01T20:57:12.083Z,2.17
2023-04-01T21:00:07.515Z,2.10
2023-04-01T21:02:57.738Z,2.00
2023-04-01T21:06:02.277Z,1.80
2023-04-01T21:08:51.039Z,2.43
2023-04-01T21:11:25.027Z,1.90
2023-04-01T21:14:09.783Z,1.87
2023-04-01T21:16:54.609Z,1.50
2023-04-01T21:19:43.221Z,1.80
2023-04-01T21:22:29.525Z,1.67
2023-04-01T21:25:07.845Z,1.70
2023-04-01T21:27:38.003Z,2.00
2023-04-01T21:30:23.515Z,2.20
2023-04-01T21:33:12.054Z,1.60
2023-04-01T21:36:23.901Z,1.43
2023-04-01T21:39:05.974Z,2.13
2023-04-01T21:41:44.960Z,2.00
2023-04-01T21:44:30.810Z,2.30
2023-04-01T21:47:09.922Z,1.90
2023-04-01T21:49:50.974Z,1.97
2023-04-01T21:52:54.765Z,1.60
2023-04-01T21:55:27.410Z,1.70
2023-04-01T21:58:09.809Z,1.77
2023-04-01T22:00:43.892Z,1.77
2023-04-01T22:03:27.175Z,1.93
2023-04-01T22:06:19.741Z,2.30
2023-04-01T22:09:01.756Z,1.93
2023-04-01T22:11:54.444Z,1.90
2023-04-01T22:14:43.116Z,1.97
2023-04-01T22:17:40.929Z,2.17
2023-04-01T22:20:16.846Z,1.90
2023-04-01T22:23:14.007Z,1.70
2023-04-01T22:26:00.751Z,1.70
2023-04-01T22:28:46.897Z,2.20
2023-04-01T22:31:18.488Z,1.97
2023-04-01T22:33:54.099Z,1.97
2023-04-01T22:37:05.282Z,1.70
2023-04-01T22:39:32.109Z,1.73
2023-04-01T22:42:09.109Z,1.97
2023-04-01T22:45:07.336Z,2.07
2023-04-01T22:47:52.573Z,2.10
2023-04-01T22:50:41.478Z,1.50
2023-04-01T22:53:37.439Z,1.50
2023-04-01T22:56:10.901Z,1.73
2023-04-01T22:58:43.941Z,1.70
2023-04-01T23:04:06.227Z,2.10
2023-04-01T23:06:47.877Z,2.60
2023-04-01T23:09:41.266Z,5.40
2023-04-01T23:12:12.583Z,2.30
2023-04-01T23:14:52.251Z,1.97
2023-04-01T23:17:34.389Z,1.70
2023-04-01T23:20:31.268Z,1.70
2023-04-01T23:23:26.829Z,1.67
2023-04-01T23:26:16.251Z,1.60
2023-04-01T23:28:49.661Z,1.60
2023-04-01T23:31:32.047Z,1.80
2023-04-01T23:34:05.294Z,1.57
2023-04-01T23:36:39.021Z,1.57
2023-04-01T23:39:18.422Z,1.80
2023-04-01T23:41:45.485Z,1.70
2023-04-01T23:44:15.092Z,1.60
2023-04-01T23:46:45.812Z,1.60
2023-04-01T23:49:21.424Z,1.70
2023-04-01T23:51:58.969Z,1.30
2023-04-01T23:54:49.427Z,1.47
2023-04-01T23:57:23.443Z,1.40
